createdAt,value
2022-10-23T00:00:16.169Z,95.94
2022-10-23T00:03:03.462Z,96.30
2022-10-23T00:05:51.399Z,96.03
2022-10-23T00:08:39.586Z,95.68
2022-10-23T00:11:29.941Z,95.13
2022-10-23T00:14:19.286Z,96.55
2022-10-23T00:17:08.021Z,97.58
2022-10-23T00:19:55.119Z,97.75
2022-10-23T00:22:42.802Z,97.66
2022-10-23T00:25:30.225Z,97.78
2022-10-23T00:28:17.678Z,97.03
2022-10-23T00:31:05.625Z,97.01
2022-10-23T00:33:54.764Z,97.36
2022-10-23T00:36:42.728Z,97.77
2022-10-23T00:39:31.003Z,97.43
2022-10-23T00:42:19.469Z,95.92
2022-10-23T00:45:15.798Z,94.55
2022-10-23T00:48:04.462Z,94.33
2022-10-23T00:50:54.945Z,95.06
2022-10-23T00:53:43.499Z,96.45
2022-10-23T00:56:35.645Z,96.80
2022-10-23T00:59:23.550Z,97.57
2022-10-23T01:02:11.691Z,97.60
2022-10-23T01:05:01.637Z,97.44
2022-10-23T01:07:57.635Z,98.00
2022-10-23T01:10:49.011Z,97.94
2022-10-23T01:13:44.214Z,96.31
2022-10-23T01:16:40.350Z,94.58
2022-10-23T01:19:44.308Z,94.84
2022-10-23T01:22:50.429Z,94.36
2022-10-23T01:25:56.889Z,93.83
2022-10-23T01:28:51.761Z,95.14
2022-10-23T01:31:46.708Z,95.96
2022-10-23T01:34:44.360Z,96.08
2022-10-23T01:37:43.349Z,95.76
2022-10-23T01:40:41.227Z,95.68
2022-10-23T01:43:34.026Z,94.98
2022-10-23T01:46:24.785Z,95.26
2022-10-23T01:49:15.225Z,95.10
2022-10-23T01:52:07.519Z,93.43
2022-10-23T01:55:00.519Z,94.61
2022-10-23T01:57:51.589Z,95.23
2022-10-23T02:00:41.836Z,96.61
2022-10-23T02:03:34.688Z,95.43
2022-10-23T02:06:22.191Z,94.72
2022-10-23T02:09:11.407Z,95.48
2022-10-23T02:12:04.477Z,96.14
2022-10-23T02:14:55.871Z,97.71
2022-10-23T02:17:48.986Z,96.16
2022-10-23T02:20:42.079Z,95.25
2022-10-23T02:23:34.460Z,95.73
2022-10-23T02:26:27.447Z,96.16
2022-10-23T02:29:21.126Z,96.86
2022-10-23T02:32:11.037Z,98.30
2022-10-23T02:35:00.966Z,97.20
2022-10-23T02:37:55.557Z,97.13
2022-10-23T02:40:48.465Z,96.26
2022-10-23T02:43:41.665Z,97.59
2022-10-23T02:46:36.692Z,99.01
2022-10-23T02:49:30.810Z,99.54
2022-10-23T02:52:24.865Z,99.27
2022-10-23T02:55:26.088Z,98.75
2022-10-23T02:58:20.739Z,99.49
2022-10-23T03:01:14.693Z,98.69
2022-10-23T03:04:04.628Z,98.90
2022-10-23T03:06:52.818Z,99.44
2022-10-23T03:09:40.228Z,100.00
2022-10-23T03:12:29.066Z,100.00
2022-10-23T03:15:16.947Z,100.00
2022-10-23T03:18:04.639Z,99.95
2022-10-23T03:20:52.176Z,99.21
2022-10-23T03:23:42.655Z,99.96
2022-10-23T03:26:33.534Z,99.26
2022-10-23T03:29:22.985Z,99.19
2022-10-23T03:32:10.933Z,99.56
2022-10-23T03:34:58.760Z,99.84
2022-10-23T03:37:46.353Z,99.81
2022-10-23T03:40:34.080Z,99.87
2022-10-23T03:43:21.092Z,100.00
2022-10-23T03:46:13.017Z,100.00
2022-10-23T03:49:00.190Z,100.00
2022-10-23T03:51:52.210Z,100.00
2022-10-23T03:54:41.810Z,100.00
2022-10-23T03:57:31.105Z,99.30
2022-10-23T04:00:18.995Z,100.00
2022-10-23T04:03:09.053Z,99.36
2022-10-23T04:05:57.603Z,98.61
2022-10-23T04:08:45.641Z,99.87
2022-10-23T04:11:36.181Z,99.93
2022-10-23T04:14:23.844Z,100.00
2022-10-23T04:17:11.756Z,100.00
2022-10-23T04:20:00.942Z,100.00
2022-10-23T04:22:48.524Z,100.00
2022-10-23T04:25:35.636Z,100.00
2022-10-23T04:28:24.347Z,100.00
2022-10-23T04:31:12.260Z,100.00
2022-10-23T04:34:02.215Z,100.00
2022-10-23T04:36:52.696Z,100.00
2022-10-23T04:39:40.781Z,100.00
2022-10-23T04:42:28.165Z,100.00
2022-10-23T04:45:22.280Z,100.00
2022-10-23T04:48:09.501Z,100.00
2022-10-23T04:51:15.425Z,100.00
2022-10-23T04:54:12.877Z,100.00
2022-10-23T04:57:14.483Z,99.24
2022-10-23T05:00:28.072Z,99.99
2022-10-23T05:03:17.748Z,100.00
2022-10-23T05:06:06.450Z,100.00
2022-10-23T05:09:15.722Z,99.96
2022-10-23T05:12:27.760Z,100.00
2022-10-23T05:15:15.556Z,100.00
2022-10-23T05:18:11.611Z,100.00
2022-10-23T05:21:02.120Z,100.00
2022-10-23T05:23:50.048Z,100.00
2022-10-23T05:26:39.160Z,100.00
2022-10-23T05:29:28.654Z,99.16
2022-10-23T05:32:18.033Z,99.53
2022-10-23T05:35:09.842Z,99.49
2022-10-23T05:38:00.346Z,99.46
2022-10-23T05:40:47.784Z,99.72
2022-10-23T05:43:39.671Z,99.60
2022-10-23T05:46:31.606Z,100.00
2022-10-23T05:49:34.939Z,100.00
2022-10-23T05:52:31.183Z,100.00
2022-10-23T05:55:37.077Z,100.00
2022-10-23T05:58:52.731Z,100.00
2022-10-23T06:01:49.477Z,100.00
2022-10-23T06:04:45.499Z,100.00
2022-10-23T06:07:44.922Z,100.00
2022-10-23T06:10:32.664Z,100.00
2022-10-23T06:13:24.274Z,100.00
2022-10-23T06:16:15.688Z,100.00
2022-10-23T06:19:03.438Z,100.00
2022-10-23T06:21:50.720Z,100.00
2022-10-23T06:24:38.209Z,100.00
2022-10-23T06:27:31.347Z,100.00
2022-10-23T06:30:19.300Z,100.00
2022-10-23T06:33:09.609Z,100.00
2022-10-23T06:35:57.602Z,100.00
2022-10-23T06:38:45.447Z,100.00
2022-10-23T06:41:33.474Z,100.00
2022-10-23T06:44:21.499Z,100.00
2022-10-23T06:47:14.602Z,100.00
2022-10-23T06:50:26.363Z,100.00
2022-10-23T06:53:14.561Z,100.00
2022-10-23T06:56:09.196Z,100.00
2022-10-23T06:58:57.799Z,100.00
2022-10-23T07:01:45.224Z,100.00
2022-10-23T07:04:33.183Z,100.00
2022-10-23T07:07:24.304Z,100.00
2022-10-23T07:10:15.222Z,100.00
2022-10-23T07:13:04.069Z,100.00
2022-10-23T07:16:00.075Z,100.00
2022-10-23T07:18:49.640Z,100.00
2022-10-23T07:21:49.043Z,99.49
2022-10-23T07:25:08.539Z,99.71
2022-10-23T07:28:00.059Z,99.91
2022-10-23T07:30:58.175Z,98.92
2022-10-23T07:33:50.010Z,99.60
2022-10-23T07:36:39.810Z,99.93
2022-10-23T07:39:27.451Z,99.23
2022-10-23T07:42:16.170Z,99.02
2022-10-23T07:45:04.531Z,99.38
2022-10-23T07:47:53.059Z,99.43
2022-10-23T07:50:44.193Z,99.00
2022-10-23T07:53:31.647Z,97.63
2022-10-23T07:56:29.830Z,98.50
2022-10-23T07:59:39.760Z,97.49
2022-10-23T08:02:30.792Z,97.29
2022-10-23T08:05:20.509Z,96.29
2022-10-23T08:08:14.370Z,96.22
2022-10-23T08:11:04.964Z,96.59
2022-10-23T08:14:05.245Z,97.07
2022-10-23T08:16:55.225Z,96.42
2022-10-23T08:19:46.320Z,96.80
2022-10-23T08:22:35.105Z,95.84
2022-10-23T08:25:25.094Z,95.01
2022-10-23T08:28:15.818Z,94.55
2022-10-23T08:31:14.121Z,93.95
2022-10-23T08:34:07.438Z,95.01
2022-10-23T08:36:55.032Z,93.95
2022-10-23T08:39:44.063Z,93.48
2022-10-23T08:42:49.973Z,93.04
2022-10-23T08:45:42.328Z,92.62
2022-10-23T08:48:44.649Z,92.02
2022-10-23T08:51:56.963Z,92.80
2022-10-23T08:54:56.071Z,92.16
2022-10-23T08:57:50.092Z,92.34
2022-10-23T09:00:37.889Z,92.64
2022-10-23T09:03:26.209Z,91.36
2022-10-23T09:06:26.442Z,91.72
2022-10-23T09:09:32.238Z,90.42
2022-10-23T09:12:22.955Z,91.50
2022-10-23T09:15:24.347Z,91.26
2022-10-23T09:18:15.353Z,91.10
2022-10-23T09:21:02.711Z,90.63
2022-10-23T09:23:50.092Z,90.55
2022-10-23T09:26:42.512Z,91.33
2022-10-23T09:29:33.113Z,91.51
2022-10-23T09:32:21.856Z,91.70
2022-10-23T09:35:22.933Z,91.62
2022-10-23T09:38:26.659Z,90.43
2022-10-23T09:41:17.988Z,90.98
2022-10-23T09:44:20.501Z,91.27
2022-10-23T09:47:12.219Z,90.08
2022-10-23T09:49:59.515Z,89.90
2022-10-23T09:52:46.994Z,90.02
2022-10-23T09:55:34.334Z,87.36
2022-10-23T09:58:26.422Z,88.88
2022-10-23T10:01:25.549Z,88.42
2022-10-23T10:04:16.166Z,88.98
2022-10-23T10:07:06.850Z,86.85
2022-10-23T10:09:55.405Z,87.50
2022-10-23T10:12:50.970Z,87.76
2022-10-23T10:15:49.015Z,85.65
2022-10-23T10:18:43.519Z,86.98
2022-10-23T10:21:41.048Z,86.53
2022-10-23T10:24:36.148Z,85.92
2022-10-23T10:27:37.612Z,85.91
2022-10-23T10:30:26.256Z,87.04
2022-10-23T10:33:23.284Z,85.14
2022-10-23T10:39:26.730Z,84.71
2022-10-23T10:42:38.375Z,84.43
2022-10-23T10:45:34.309Z,83.53
2022-10-23T10:48:42.439Z,84.16
2022-10-23T10:52:00.996Z,85.28
2022-10-23T10:54:58.169Z,83.53
2022-10-23T10:57:48.348Z,84.23
2022-10-23T11:00:36.602Z,83.99
2022-10-23T11:03:37.590Z,84.86
2022-10-23T11:06:31.243Z,83.13
2022-10-23T11:09:23.147Z,81.76
2022-10-23T11:12:18.839Z,83.94
2022-10-23T11:15:17.350Z,82.60
2022-10-23T11:18:14.159Z,81.52
2022-10-23T11:21:13.012Z,82.73
2022-10-23T11:24:23.099Z,81.13
2022-10-23T11:27:27.295Z,81.95
2022-10-23T11:30:23.218Z,81.76
2022-10-23T11:33:39.277Z,80.78
2022-10-23T11:36:44.419Z,81.21
2022-10-23T11:39:34.114Z,80.76
2022-10-23T11:42:46.689Z,79.98
2022-10-23T11:45:37.075Z,79.50
2022-10-23T11:48:37.389Z,78.99
2022-10-23T11:51:30.210Z,80.63
2022-10-23T11:54:27.229Z,79.94
2022-10-23T11:57:17.837Z,81.04
2022-10-23T12:00:23.300Z,80.13
2022-10-23T12:03:20.867Z,77.88
2022-10-23T12:06:16.554Z,77.59
2022-10-23T12:09:09.519Z,77.45
2022-10-23T12:12:06.711Z,77.91
2022-10-23T12:14:54.638Z,78.30
2022-10-23T12:17:45.283Z,78.11
2022-10-23T12:20:45.309Z,78.67
2022-10-23T12:23:52.139Z,77.96
2022-10-23T12:26:54.517Z,78.25
2022-10-23T12:29:59.568Z,78.46
2022-10-23T12:33:12.400Z,79.10
2022-10-23T12:36:19.318Z,79.14
2022-10-23T12:39:28.099Z,78.76
2022-10-23T12:42:21.221Z,77.94
2022-10-23T12:45:19.764Z,78.61
2022-10-23T12:48:20.658Z,78.70
2022-10-23T12:51:08.511Z,79.73
2022-10-23T12:53:56.079Z,79.89
2022-10-23T12:56:45.150Z,79.89
2022-10-23T12:59:38.518Z,80.23
2022-10-23T13:02:28.789Z,81.37
2022-10-23T13:05:21.751Z,81.77
2022-10-23T13:08:12.126Z,81.59
2022-10-23T13:11:21.858Z,80.45
2022-10-23T13:14:14.657Z,81.44
2022-10-23T13:17:03.576Z,82.38
2022-10-23T13:19:50.881Z,81.36
2022-10-23T13:22:42.055Z,81.14
2022-10-23T13:25:32.344Z,81.54
2022-10-23T13:28:25.113Z,82.85
2022-10-23T13:31:31.548Z,82.32
2022-10-23T13:34:24.230Z,81.20
2022-10-23T13:37:27.920Z,81.16
2022-10-23T13:40:25.056Z,81.71
2022-10-23T13:43:18.952Z,80.96
2022-10-23T13:48:59.070Z,81.16
2022-10-23T13:51:51.267Z,80.38
2022-10-23T13:54:38.488Z,80.13
2022-10-23T13:57:27.618Z,78.14
2022-10-23T14:00:16.443Z,78.12
2022-10-23T14:03:03.627Z,78.17
2022-10-23T14:05:51.411Z,78.38
2022-10-23T14:08:39.336Z,78.02
2022-10-23T14:11:27.919Z,78.14
2022-10-23T14:14:16.577Z,77.43
2022-10-23T14:17:03.852Z,77.07
2022-10-23T14:19:51.450Z,77.33
2022-10-23T14:22:38.775Z,77.02
2022-10-23T14:25:26.327Z,76.30
2022-10-23T14:28:13.698Z,75.80
2022-10-23T14:31:06.584Z,75.64
2022-10-23T14:33:56.118Z,75.22
2022-10-23T14:36:50.243Z,75.58
2022-10-23T14:39:38.447Z,74.30
2022-10-23T14:42:29.367Z,73.96
2022-10-23T14:45:19.823Z,74.20
2022-10-23T14:48:08.707Z,74.70
2022-10-23T14:50:56.319Z,75.53
2022-10-23T14:53:44.198Z,75.38
2022-10-23T14:56:34.242Z,75.58
2022-10-23T14:59:21.988Z,74.73
2022-10-23T15:02:11.722Z,75.17
2022-10-23T15:05:00.959Z,73.82
2022-10-23T15:07:48.586Z,73.29
2022-10-23T15:10:39.158Z,75.06
2022-10-23T15:13:27.134Z,74.86
2022-10-23T15:16:15.016Z,75.43
2022-10-23T15:19:02.641Z,75.62
2022-10-23T15:21:52.493Z,76.19
2022-10-23T15:24:40.243Z,75.45
2022-10-23T15:27:27.883Z,76.96
2022-10-23T15:30:15.450Z,76.33
2022-10-23T15:33:02.998Z,76.08
2022-10-23T15:35:51.677Z,76.28
2022-10-23T15:38:40.542Z,76.66
2022-10-23T15:41:29.943Z,77.23
2022-10-23T15:44:20.142Z,77.58
2022-10-23T15:47:07.479Z,77.80
2022-10-23T15:49:54.527Z,77.79
2022-10-23T15:52:42.332Z,77.63
2022-10-23T15:55:31.690Z,77.83
2022-10-23T15:58:19.612Z,78.29
2022-10-23T16:01:07.593Z,78.74
2022-10-23T16:03:54.979Z,79.64
2022-10-23T16:06:42.220Z,80.66
2022-10-23T16:09:31.027Z,80.84
2022-10-23T16:12:19.684Z,80.94
2022-10-23T16:15:09.606Z,81.71
2022-10-23T16:17:57.906Z,81.70
2022-10-23T16:20:45.674Z,81.92
2022-10-23T16:23:33.630Z,81.43
2022-10-23T16:26:22.471Z,81.10
2022-10-23T16:29:12.938Z,80.84
2022-10-23T16:32:00.455Z,81.07
2022-10-23T16:34:47.651Z,80.30
2022-10-23T16:37:35.588Z,79.43
2022-10-23T16:40:28.888Z,80.24
2022-10-23T16:43:35.635Z,79.91
2022-10-23T16:46:44.569Z,79.64
2022-10-23T16:49:32.365Z,80.42
2022-10-23T16:52:19.969Z,80.40
2022-10-23T16:55:08.635Z,79.85
2022-10-23T16:57:57.662Z,80.58
2022-10-23T17:00:45.536Z,81.04
2022-10-23T17:03:37.489Z,83.03
2022-10-23T17:06:27.146Z,84.59
2022-10-23T17:09:17.233Z,85.90
2022-10-23T17:12:05.158Z,87.42
2022-10-23T17:14:52.600Z,86.54
2022-10-23T17:17:40.051Z,86.00
2022-10-23T17:20:28.815Z,86.78
2022-10-23T17:23:16.388Z,87.76
2022-10-23T17:26:05.117Z,88.45
2022-10-23T17:28:52.915Z,89.99
2022-10-23T17:31:43.568Z,91.04
2022-10-23T17:34:30.644Z,90.20
2022-10-23T17:37:19.808Z,91.31
2022-10-23T17:40:08.246Z,91.20
2022-10-23T17:42:55.707Z,92.39
2022-10-23T17:45:45.267Z,92.35
2022-10-23T17:48:33.580Z,92.81
2022-10-23T17:51:23.737Z,92.72
2022-10-23T17:54:14.587Z,92.43
2022-10-23T17:57:01.972Z,92.70
2022-10-23T17:59:49.566Z,92.33
2022-10-23T18:02:37.231Z,92.85
2022-10-23T18:05:24.710Z,94.38
2022-10-23T18:08:12.223Z,93.98
2022-10-23T18:11:01.223Z,94.77
2022-10-23T18:13:48.980Z,94.45
2022-10-23T18:16:38.237Z,93.48
2022-10-23T18:19:25.528Z,93.64
2022-10-23T18:22:13.425Z,93.65
2022-10-23T18:25:01.347Z,94.23
2022-10-23T18:27:49.776Z,95.06
2022-10-23T18:33:27.226Z,93.85
2022-10-23T18:36:16.630Z,93.24
2022-10-23T18:39:05.701Z,94.58
2022-10-23T18:41:55.891Z,94.27
2022-10-23T18:44:50.029Z,92.39
2022-10-23T18:47:37.417Z,93.44
2022-10-23T18:50:24.738Z,94.08
2022-10-23T18:53:12.508Z,94.26
2022-10-23T18:56:00.717Z,94.71
2022-10-23T18:58:48.139Z,95.25
2022-10-23T19:01:37.763Z,96.83
2022-10-23T19:04:25.665Z,98.06
2022-10-23T19:07:12.998Z,97.33
2022-10-23T19:10:00.096Z,99.82
2022-10-23T19:12:47.706Z,100.00
2022-10-23T19:15:35.860Z,100.00
2022-10-23T19:18:24.375Z,100.00
2022-10-23T19:21:12.871Z,100.00
2022-10-23T19:24:03.143Z,100.00
2022-10-23T19:26:51.344Z,100.00
2022-10-23T19:29:41.462Z,100.00
2022-10-23T19:32:28.617Z,100.00
2022-10-23T19:35:20.267Z,100.00
2022-10-23T19:38:07.752Z,100.00
2022-10-23T19:40:55.181Z,100.00
2022-10-23T19:43:43.079Z,100.00
2022-10-23T19:46:30.800Z,100.00
2022-10-23T19:49:19.086Z,100.00
2022-10-23T19:52:07.783Z,100.00
2022-10-23T19:54:55.927Z,100.00
2022-10-23T19:57:44.049Z,100.00
2022-10-23T20:00:31.754Z,100.00
2022-10-23T20:03:19.734Z,100.00
2022-10-23T20:06:10.340Z,100.00
2022-10-23T20:08:59.387Z,100.00
2022-10-23T20:11:49.338Z,100.00
2022-10-23T20:14:36.761Z,100.00
2022-10-23T20:17:24.435Z,100.00
2022-10-23T20:20:11.717Z,100.00
2022-10-23T20:22:59.963Z,100.00
2022-10-23T20:25:48.992Z,100.00
2022-10-23T20:28:37.625Z,100.00
2022-10-23T20:31:26.814Z,100.00
2022-10-23T20:34:14.538Z,100.00
2022-10-23T20:37:01.673Z,100.00
2022-10-23T20:39:49.076Z,100.00
2022-10-23T20:42:38.144Z,100.00
2022-10-23T20:45:25.571Z,100.00
2022-10-23T20:48:12.518Z,100.00
2022-10-23T20:51:03.755Z,100.00
2022-10-23T20:53:53.214Z,100.00
2022-10-23T20:56:41.078Z,100.00
2022-10-23T20:59:30.404Z,100.00
2022-10-23T21:02:18.238Z,100.00
2022-10-23T21:05:06.433Z,100.00
2022-10-23T21:07:54.084Z,100.00
2022-10-23T21:10:47.295Z,100.00
2022-10-23T21:13:35.205Z,100.00
2022-10-23T21:16:28.434Z,100.00
2022-10-23T21:19:17.038Z,100.00
2022-10-23T21:22:04.286Z,100.00
2022-10-23T21:24:52.161Z,100.00
2022-10-23T21:27:39.938Z,100.00
2022-10-23T21:30:27.254Z,100.00
2022-10-23T21:33:16.086Z,100.00
2022-10-23T21:36:19.003Z,100.00
2022-10-23T21:39:06.890Z,100.00
2022-10-23T21:41:54.068Z,100.00
2022-10-23T21:44:41.785Z,100.00
2022-10-23T21:47:31.286Z,100.00
2022-10-23T21:50:23.395Z,100.00
2022-10-23T21:53:11.096Z,100.00
2022-10-23T21:56:04.591Z,100.00
2022-10-23T21:58:51.959Z,100.00
2022-10-23T22:01:39.962Z,100.00
2022-10-23T22:04:27.698Z,100.00
2022-10-23T22:07:17.207Z,100.00
2022-10-23T22:10:05.527Z,100.00
2022-10-23T22:12:53.060Z,100.00
2022-10-23T22:15:39.912Z,99.79
2022-10-23T22:18:27.612Z,99.46
2022-10-23T22:21:16.896Z,99.85
2022-10-23T22:24:06.024Z,100.00
2022-10-23T22:26:55.408Z,100.00
2022-10-23T22:29:42.958Z,98.62
2022-10-23T22:32:30.276Z,97.26
2022-10-23T22:35:17.549Z,96.70
2022-10-23T22:38:05.048Z,95.80
2022-10-23T22:40:53.845Z,96.09
2022-10-23T22:43:41.097Z,97.04
2022-10-23T22:46:30.538Z,95.52
2022-10-23T22:49:18.271Z,95.01
2022-10-23T22:52:05.875Z,94.31
2022-10-23T22:54:52.963Z,93.81
2022-10-23T22:57:41.860Z,94.17
2022-10-23T23:00:29.498Z,93.97
2022-10-23T23:03:17.127Z,93.52
2022-10-23T23:06:05.482Z,94.53
2022-10-23T23:08:53.496Z,96.29
2022-10-23T23:11:51.203Z,97.08
2022-10-23T23:14:42.388Z,96.70
2022-10-23T23:17:29.875Z,97.00
2022-10-23T23:20:17.529Z,96.68
2022-10-23T23:23:04.823Z,97.14
2022-10-23T23:25:52.284Z,98.27
2022-10-23T23:28:39.507Z,98.51
2022-10-23T23:31:28.112Z,98.22
2022-10-23T23:34:15.724Z,98.45
2022-10-23T23:37:03.054Z,99.94
2022-10-23T23:39:50.659Z,100.00
2022-10-23T23:42:38.190Z,100.00
2022-10-23T23:45:25.845Z,99.76
2022-10-23T23:48:14.568Z,98.43
2022-10-23T23:51:02.124Z,97.06
2022-10-23T23:53:50.598Z,96.68
2022-10-23T23:56:38.100Z,94.36
2022-10-23T23:59:25.501Z,93.00
